Time;durP1;ratioP1;P1;durP2;ratioP2;P2;SDS_P1;SDS_P2;PMS_P1;PMS_P2;Temp;Humidity;BMP_temperature;BMP_pressure;BME280_temperature;BME280_humidity;BME280_pressure;Samples;Min_cycle;Max_cycle;Signal;HPM_P1;HPM_P2
2022/03/11 00:02:21;;;;;;;14.37;8.20;;;;;;;-145.18;91.15;47463.31;4932474;29;20177;-66
2022/03/11 00:04:47;;;;;;;13.00;8.07;;;;;;;-145.18;90.79;47434.00;4932101;29;20043;-67
2022/03/11 00:07:12;;;;;;;16.50;8.70;;;;;;;-145.18;90.87;47441.81;4931890;29;20043;-67
2022/03/11 00:09:38;;;;;;;18.03;8.63;;;;;;;-145.18;91.85;47476.97;4914681;29;20688;-67
2022/03/11 00:12:06;;;;;;;18.00;8.43;;;;;;;-145.18;91.31;47465.25;4931980;29;20127;-66
2022/03/11 00:14:32;;;;;;;17.00;9.27;;;;;;;-145.18;91.62;47441.81;4931629;29;20051;-67
2022/03/11 00:16:57;;;;;;;17.30;8.43;;;;;;;-145.18;91.53;47453.53;4931767;29;20275;-67
2022/03/11 00:19:23;;;;;;;20.20;9.47;;;;;;;-145.18;91.15;47441.81;4932272;29;20087;-67
2022/03/11 00:21:48;;;;;;;17.73;8.80;;;;;;;-145.18;91.55;47435.94;4931777;29;20072;-67
2022/03/11 00:24:14;;;;;;;15.37;8.10;;;;;;;-145.18;92.39;47443.75;4914713;29;20047;-67
2022/03/11 00:26:39;;;;;;;18.07;9.17;;;;;;;-145.18;92.26;47432.03;4931920;29;20412;-67
2022/03/11 00:29:04;;;;;;;15.30;8.03;;;;;;;-145.18;92.73;47457.44;4931369;29;20405;-67
2022/03/11 00:31:30;;;;;;;18.57;8.70;;;;;;;-145.18;92.74;47449.63;4932346;29;20084;-67
2022/03/11 00:33:55;;;;;;;18.33;8.70;;;;;;;-145.18;93.31;47416.41;4931223;29;20075;-67
2022/03/11 00:36:22;;;;;;;20.70;8.90;;;;;;;-145.18;92.55;47463.31;4931590;29;20551;-67
2022/03/11 00:38:48;;;;;;;18.43;9.03;;;;;;;-145.18;93.57;47461.34;4931282;29;20039;-67
2022/03/11 00:41:13;;;;;;;16.27;9.03;;;;;;;-145.18;93.24;47455.47;4931720;29;20655;-66
2022/03/11 00:43:38;;;;;;;15.93;8.40;;;;;;;-145.18;93.88;47463.31;4930959;29;20051;-67
2022/03/11 00:46:04;;;;;;;17.87;8.83;;;;;;;-145.18;93.68;47451.56;4931656;29;20046;-66
2022/03/11 00:48:29;;;;;;;18.07;8.37;;;;;;;-145.18;93.79;47432.03;4931109;29;20043;-66
2022/03/11 00:50:57;;;;;;;18.30;8.87;;;;;;;-145.18;93.39;47435.94;4930948;29;20480;-67
2022/03/11 00:53:23;;;;;;;19.13;9.23;;;;;;;-145.18;94.62;47447.66;4930954;29;20043;-67
2022/03/11 00:55:48;;;;;;;22.70;9.60;;;;;;;-145.18;94.84;47447.66;4914305;29;20341;-66
2022/03/11 00:58:14;;;;;;;19.93;9.67;;;;;;;-145.18;95.38;47451.56;4930774;29;20040;-67
2022/03/11 01:00:39;;;;;;;17.73;8.90;;;;;;;-145.18;94.59;47437.91;4931023;29;20461;-67
2022/03/11 01:03:04;;;;;;;17.67;8.67;;;;;;;-145.18;94.11;47461.34;4931247;29;20063;-67
2022/03/11 01:05:30;;;;;;;17.73;9.07;;;;;;;-145.18;95.42;47439.84;4930910;29;20413;-66
2022/03/11 01:07:56;;;;;;;19.30;8.87;;;;;;;-145.18;93.90;47445.72;4930768;29;20059;-66
2022/03/11 01:10:22;;;;;;;16.50;8.53;;;;;;;-145.18;95.01;47449.63;4930680;29;20048;-66
2022/03/11 01:12:47;;;;;;;14.93;8.37;;;;;;;-145.18;94.54;47461.34;4930439;29;20278;-67
2022/03/11 01:15:13;;;;;;;17.47;9.37;;;;;;;-145.18;95.40;47451.56;4898489;29;20039;-67
2022/03/11 01:17:38;;;;;;;16.33;8.60;;;;;;;-145.18;94.26;47443.75;4931030;29;20051;-66
2022/03/11 01:20:06;;;;;;;17.73;9.87;;;;;;;-145.18;95.49;47467.22;4930853;29;20055;-67
2022/03/11 01:22:32;;;;;;;17.10;9.50;;;;;;;-145.18;95.29;47455.47;4930416;29;20095;-67
2022/03/11 01:24:58;;;;;;;21.13;9.73;;;;;;;-145.18;95.11;47441.81;4930474;29;20278;-67
2022/03/11 01:27:24;;;;;;;17.20;8.87;;;;;;;-145.18;94.21;47461.34;4930245;29;20379;-66
2022/03/11 01:29:49;;;;;;;19.37;9.53;;;;;;;-145.18;94.85;47453.53;4930328;29;20047;-67
2022/03/11 01:32:15;;;;;;;17.93;8.80;;;;;;;-145.18;94.69;47449.63;4931101;29;20044;-67
2022/03/11 01:34:40;;;;;;;18.43;9.00;;;;;;;-145.18;94.23;47434.00;4930253;29;20135;-67
2022/03/11 01:37:06;;;;;;;21.87;9.73;;;;;;;-145.18;92.81;47447.66;4930317;29;20051;-66
2022/03/11 01:39:31;;;;;;;17.67;9.70;;;;;;;-145.18;94.06;47459.41;4930085;29;20054;-67
2022/03/11 01:41:57;;;;;;;18.87;9.37;;;;;;;-145.18;94.69;47463.31;4930664;29;20047;-66
2022/03/11 01:44:26;;;;;;;19.90;9.77;;;;;;;-145.18;94.00;47467.22;4913158;29;20139;-66
2022/03/11 01:46:53;;;;;;;18.63;9.03;;;;;;;-145.18;93.33;47426.19;4930070;29;20500;-66
2022/03/11 01:49:19;;;;;;;19.03;9.70;;;;;;;-145.18;92.67;47465.25;4930379;29;20282;-67
2022/03/11 01:51:44;;;;;;;16.03;9.33;;;;;;;-145.18;93.20;47455.47;4930397;29;20286;-66
2022/03/11 01:54:10;;;;;;;17.30;9.43;;;;;;;-145.18;94.06;47447.66;4930050;29;20458;-66
2022/03/11 01:56:37;;;;;;;21.97;10.00;;;;;;;-145.18;93.79;47459.41;4930271;29;20055;-66
2022/03/11 01:59:04;;;;;;;16.53;9.40;;;;;;;-145.18;94.43;47459.41;4929840;29;20274;-67
2022/03/11 02:01:30;;;;;;;18.43;9.33;;;;;;;-145.18;94.51;47445.72;4929906;29;20285;-67
2022/03/11 02:03:58;;;;;;;20.17;10.27;;;;;;;-145.18;93.68;47461.34;4929256;29;20274;-67
2022/03/11 02:06:26;;;;;;;17.50;9.40;;;;;;;-145.18;94.26;47459.41;4929777;29;20040;-67
2022/03/11 02:08:52;;;;;;;18.70;9.10;;;;;;;-145.18;94.59;47465.25;4930300;29;20643;-67
2022/03/11 02:11:19;;;;;;;16.37;8.87;;;;;;;-145.18;93.95;47432.03;4912731;29;20710;-67
2022/03/11 02:13:47;;;;;;;17.27;9.38;;;;;;;-145.18;94.48;47463.31;4929727;29;20972;-66
2022/03/11 02:16:17;;;;;;;16.00;9.30;;;;;;;-145.18;94.94;47465.25;4930059;29;20047;-66
2022/03/11 02:18:43;;;;;;;17.87;9.07;;;;;;;-145.18;94.60;47457.44;4929911;29;20333;-67
2022/03/11 02:21:09;;;;;;;19.43;9.57;;;;;;;-145.18;96.11;47478.94;4930011;29;20918;-67
2022/03/11 02:23:55;;;;;;;18.50;9.47;;;;;;;-145.18;94.85;47463.31;4929444;29;20095;-67
2022/03/11 02:26:22;;;;;;;18.73;9.95;;;;;;;-145.18;96.52;47461.34;4929540;29;20646;-66
2022/03/11 02:28:50;;;;;;;20.37;9.07;;;;;;;-145.18;96.44;47484.78;4929799;29;20540;-67
2022/03/11 02:31:15;;;;;;;20.10;8.87;;;;;;;-145.18;96.59;47476.97;4929794;29;20274;-67
2022/03/11 02:33:41;;;;;;;14.80;9.87;;;;;;;-145.18;96.18;47453.53;4929335;29;20883;-67
2022/03/11 02:36:07;;;;;;;17.80;9.30;;;;;;;-145.18;96.17;47461.34;4930233;29;20059;-67
2022/03/11 02:38:33;;;;;;;16.90;9.40;;;;;;;-145.18;96.80;47482.84;4929063;29;20454;-66
2022/03/11 02:40:58;;;;;;;19.23;9.23;;;;;;;-145.18;94.92;47461.34;4930737;29;20039;-67
2022/03/11 02:43:25;;;;;;;19.23;8.87;;;;;;;-145.18;95.01;47480.88;4929357;29;20889;-67
2022/03/11 02:45:51;;;;;;;18.30;10.05;;;;;;;-145.18;95.57;47461.34;4929738;29;20187;-67
2022/03/11 02:48:16;;;;;;;18.33;8.98;;;;;;;-145.18;95.69;47469.16;4929504;29;20131;-66
2022/03/11 02:50:42;;;;;;;20.60;8.80;;;;;;;-145.18;94.95;47473.06;4929603;29;20549;-66
2022/03/11 02:53:08;;;;;;;18.70;10.37;;;;;;;-145.18;95.72;47467.22;4929177;29;20051;-67
2022/03/11 02:55:33;;;;;;;15.30;8.90;;;;;;;-145.18;95.76;47461.34;4930192;29;20171;-67
2022/03/11 02:57:59;;;;;;;17.27;9.10;;;;;;;-145.18;95.10;47455.47;4929383;29;20527;-67
2022/03/11 03:03:00;;;;;;;17.88;10.15;;;;;;;-145.18;94.88;47480.88;5016455;23;20514;-68
2022/03/11 03:05:25;;;;;;;17.43;9.50;;;;;;;-145.18;94.64;47457.44;4929318;29;20060;-66
2022/03/11 03:07:50;;;;;;;21.60;10.07;;;;;;;-145.18;95.29;47484.78;4929139;29;20040;-68
2022/03/11 03:10:16;;;;;;;21.17;11.13;;;;;;;-145.18;96.25;47480.88;4912578;29;20455;-66
2022/03/11 03:12:41;;;;;;;15.07;8.50;;;;;;;-145.18;96.11;47490.66;4912336;29;20663;-68
2022/03/11 03:15:08;;;;;;;17.23;9.27;;;;;;;-145.18;96.36;47484.78;4914553;29;20559;-68
2022/03/11 03:17:34;;;;;;;19.03;9.90;;;;;;;-145.18;96.32;47471.13;4932763;29;20039;-68
2022/03/11 03:20:00;;;;;;;18.30;9.43;;;;;;;-145.18;96.71;47469.16;4932986;29;20793;-68
2022/03/11 03:22:25;;;;;;;17.13;9.47;;;;;;;-145.18;97.18;47482.84;4932692;29;20051;-68
2022/03/11 03:24:50;;;;;;;17.20;9.00;;;;;;;-145.18;96.98;47486.75;4932552;29;20040;-68
2022/03/11 03:27:16;;;;;;;19.13;9.50;;;;;;;-145.18;96.99;47482.84;4933108;29;20043;-66
2022/03/11 03:29:42;;;;;;;18.70;8.87;;;;;;;-145.18;96.44;47488.69;4932450;29;20046;-66
2022/03/11 03:32:08;;;;;;;15.93;8.97;;;;;;;-145.18;96.56;47516.06;4932418;29;20500;-68
2022/03/11 03:34:36;;;;;;;17.30;9.03;;;;;;;-145.18;97.25;47506.28;4932666;29;20060;-66
2022/03/11 03:37:07;;;;;;;16.35;9.15;;;;;;;-145.18;97.37;47498.47;4932378;29;20438;-67
2022/03/11 03:39:33;;;;;;;19.77;9.63;;;;;;;-145.18;97.71;47496.50;4932904;29;20075;-68
2022/03/11 03:41:59;;;;;;;16.15;8.30;;;;;;;-145.18;97.06;47498.47;4915229;29;20508;-68
2022/03/11 03:44:24;;;;;;;18.17;10.10;;;;;;;-145.18;97.48;47492.59;4932406;29;20062;-67
2022/03/11 03:46:50;;;;;;;16.47;8.87;;;;;;;-145.18;97.71;47490.66;4932600;29;20480;-68
2022/03/11 03:49:15;;;;;;;18.30;9.87;;;;;;;-145.18;97.25;47478.94;4933023;29;20052;-68
2022/03/11 03:51:41;;;;;;;18.53;9.33;;;;;;;-145.18;97.33;47486.75;4931828;29;20085;-68
2022/03/11 03:54:11;;;;;;;18.97;9.43;;;;;;;-145.18;97.66;47492.59;4932186;29;20066;-68
2022/03/11 03:56:38;;;;;;;16.80;8.93;;;;;;;-145.18;97.52;47480.88;4932162;29;20048;-68
2022/03/11 03:59:05;;;;;;;18.85;9.63;;;;;;;-145.18;97.01;47469.16;4932290;29;20115;-68
2022/03/11 04:01:35;;;;;;;19.08;8.95;;;;;;;-145.18;96.95;47492.59;4926412;29;20094;-68
2022/03/11 04:04:02;;;;;;;19.73;9.90;;;;;;;-145.18;97.86;47486.75;4912881;29;20124;-67
2022/03/11 04:06:29;;;;;;;20.08;9.85;;;;;;;-145.18;97.23;47482.84;4914009;29;20098;-68
2022/03/11 04:08:56;;;;;;;17.73;9.52;;;;;;;-145.18;97.67;47480.88;4896131;29;20051;-68
2022/03/11 04:11:23;;;;;;;22.60;9.43;;;;;;;-145.18;96.70;47498.47;4912923;29;20048;-68
2022/03/11 04:13:50;;;;;;;16.65;9.15;;;;;;;-145.18;97.54;47486.75;4912604;29;20063;-68
2022/03/11 04:16:16;;;;;;;17.95;9.57;;;;;;;-145.18;96.90;47480.88;4913533;29;20067;-68
2022/03/11 04:18:41;;;;;;;18.73;9.05;;;;;;;-145.18;97.50;47494.56;4912787;29;20044;-68
2022/03/11 04:21:07;;;;;;;16.50;9.40;;;;;;;-145.18;97.14;47488.69;4913144;29;20043;-68
2022/03/11 04:23:32;;;;;;;19.80;9.43;;;;;;;-145.18;97.77;47490.66;4912767;29;20044;-68
2022/03/11 04:25:58;;;;;;;17.83;9.33;;;;;;;-145.18;97.78;47484.78;4912412;29;20044;-67
2022/03/11 04:28:23;;;;;;;15.63;8.73;;;;;;;-145.18;97.75;47504.31;4912705;29;20509;-68
2022/03/11 04:30:48;;;;;;;18.33;8.90;;;;;;;-145.18;97.64;47506.28;4912446;29;20051;-68
2022/03/11 04:33:14;;;;;;;18.63;9.83;;;;;;;-145.18;97.68;47514.09;4912548;29;20047;-68
2022/03/11 04:35:39;;;;;;;16.77;8.60;;;;;;;-145.18;98.10;47494.56;4912770;29;20044;-68
2022/03/11 04:38:04;;;;;;;20.13;10.57;;;;;;;-145.18;98.76;47500.41;4912928;29;20588;-68
2022/03/11 04:40:32;;;;;;;19.63;9.83;;;;;;;-145.18;97.33;47471.13;4895890;29;20047;-68
2022/03/11 04:42:58;;;;;;;19.98;9.43;;;;;;;-145.18;97.53;47484.78;4912301;29;20036;-67
2022/03/11 04:45:24;;;;;;;18.05;9.05;;;;;;;-145.18;97.67;47484.78;4912800;29;20047;-68
2022/03/11 04:47:49;;;;;;;23.40;9.27;;;;;;;-145.18;97.72;47492.59;4912256;29;20036;-68
2022/03/11 04:50:15;;;;;;;15.50;7.97;;;;;;;-145.18;97.19;47492.59;4912348;29;20417;-68
2022/03/11 04:52:40;;;;;;;17.90;8.50;;;;;;;-145.18;96.84;47519.97;4895792;29;20183;-67
2022/03/11 04:55:06;;;;;;;22.20;8.83;;;;;;;-145.18;97.09;47508.22;4912741;29;20056;-68
2022/03/11 04:57:31;;;;;;;16.97;8.93;;;;;;;-145.18;97.22;47484.78;4911698;29;20044;-68
2022/03/11 04:59:57;;;;;;;17.37;8.63;;;;;;;-145.18;97.23;47506.28;4912466;29;20096;-68
2022/03/11 05:02:27;;;;;;;20.10;8.47;;;;;;;-145.18;97.50;47480.88;4911857;29;20047;-67
2022/03/11 05:04:52;;;;;;;15.50;8.82;;;;;;;-145.18;97.86;47486.75;4912344;29;20616;-68
2022/03/11 05:07:18;;;;;;;18.90;9.03;;;;;;;-145.18;98.80;47498.47;4911721;29;20071;-68
2022/03/11 05:09:43;;;;;;;19.13;8.73;;;;;;;-145.18;97.58;47504.31;4912490;29;20130;-68
2022/03/11 05:12:09;;;;;;;18.30;8.57;;;;;;;-145.18;98.17;47492.59;4911713;29;20051;-68
2022/03/11 05:14:34;;;;;;;16.58;8.10;;;;;;;-145.18;97.10;47488.69;4912039;29;20072;-68
2022/03/11 05:17:00;;;;;;;18.23;9.10;;;;;;;-145.18;97.83;47482.84;4911300;29;20131;-68
2022/03/11 05:19:26;;;;;;;17.23;9.10;;;;;;;-145.18;97.42;47478.94;4911549;29;20052;-66
2022/03/11 05:21:52;;;;;;;15.50;8.98;;;;;;;-145.18;97.94;47480.88;4911724;29;20044;-68
2022/03/11 05:24:17;;;;;;;24.30;9.47;;;;;;;-145.18;97.67;47492.59;4912571;29;20090;-68
2022/03/11 05:26:43;;;;;;;18.10;9.03;;;;;;;-145.18;97.32;47500.41;4911132;29;20107;-68
2022/03/11 05:29:08;;;;;;;22.20;8.93;;;;;;;-145.18;97.91;47492.59;4910632;29;20694;-68
2022/03/11 05:31:34;;;;;;;14.97;8.27;;;;;;;-145.18;97.58;47500.41;4904858;29;20066;-68
2022/03/11 05:33:59;;;;;;;18.00;8.80;;;;;;;-145.18;97.47;47496.50;4901953;29;20059;-68
2022/03/11 05:36:25;;;;;;;21.50;9.67;;;;;;;-145.18;97.71;47465.25;4901977;29;20056;-68
2022/03/11 05:38:51;;;;;;;17.70;8.50;;;;;;;-145.18;97.58;47502.38;4900500;29;20143;-68
2022/03/11 05:41:16;;;;;;;22.70;9.48;;;;;;;-145.18;98.67;47494.56;4902185;29;20044;-68
2022/03/11 05:43:42;;;;;;;14.00;8.03;;;;;;;-145.18;98.61;47504.31;4901048;29;20220;-68
2022/03/11 05:46:08;;;;;;;17.73;9.23;;;;;;;-145.18;98.63;47488.69;4892993;29;20044;-67
2022/03/11 05:48:33;;;;;;;16.80;8.20;;;;;;;-145.18;98.22;47500.41;4893763;29;20725;-68
2022/03/11 05:50:59;;;;;;;18.27;8.57;;;;;;;-145.18;98.98;47496.50;4896790;29;20136;-68
2022/03/11 05:53:25;;;;;;;14.97;8.37;;;;;;;-145.18;98.46;47504.31;4900762;29;20051;-68
2022/03/11 05:55:50;;;;;;;18.77;8.15;;;;;;;-145.18;99.54;47506.28;4898955;29;20052;-68
2022/03/11 05:58:16;;;;;;;19.07;8.80;;;;;;;-145.18;100.00;47506.28;4903799;29;20079;-68
2022/03/11 06:00:41;;;;;;;16.77;8.40;;;;;;;-145.18;100.00;47504.31;4911014;29;20040;-68
2022/03/11 06:03:07;;;;;;;17.97;7.90;;;;;;;-145.18;99.24;47521.91;4893514;29;20048;-67
2022/03/11 06:05:33;;;;;;;26.77;9.40;;;;;;;-145.18;99.95;47506.28;4910918;29;20040;-68
2022/03/11 06:07:59;;;;;;;23.27;8.27;;;;;;;-145.18;100.00;47510.19;4911402;29;20059;-68
2022/03/11 06:10:25;;;;;;;17.95;8.25;;;;;;;-145.18;100.00;47486.75;4894463;29;20469;-68
2022/03/11 06:12:50;;;;;;;18.97;8.47;;;;;;;-145.18;99.48;47504.31;4910276;29;20044;-68
2022/03/11 06:15:16;;;;;;;22.47;8.03;;;;;;;-145.18;99.49;47492.59;4911245;29;20048;-68
2022/03/11 06:17:42;;;;;;;23.27;8.30;;;;;;;-145.18;99.80;47498.47;4893130;29;20044;-68
2022/03/11 06:20:09;;;;;;;21.27;8.63;;;;;;;-145.18;100.00;47504.31;4909714;29;20043;-68
2022/03/11 06:22:36;;;;;;;17.77;8.15;;;;;;;-145.18;100.00;47504.31;4910281;29;20052;-68
2022/03/11 06:25:03;;;;;;;22.00;8.52;;;;;;;-145.18;100.00;47508.22;4911817;29;20048;-68
2022/03/11 06:27:28;;;;;;;23.63;8.65;;;;;;;-145.18;100.00;47512.16;4910292;29;20036;-68
2022/03/11 06:29:53;;;;;;;16.30;7.87;;;;;;;-145.18;100.00;47516.06;4910786;29;20058;-67
2022/03/11 06:32:19;;;;;;;20.20;7.77;;;;;;;-145.18;100.00;47500.41;4910637;29;20067;-68
2022/03/11 06:34:45;;;;;;;21.43;8.50;;;;;;;-145.18;99.74;47502.38;4910373;29;20040;-68
2022/03/11 06:37:10;;;;;;;21.93;8.13;;;;;;;-145.18;99.68;47484.78;4910486;29;20044;-67
2022/03/11 06:39:36;;;;;;;17.10;8.63;;;;;;;-145.18;100.00;47480.88;4911095;29;20071;-68
2022/03/11 06:42:02;;;;;;;17.73;8.55;;;;;;;-145.18;99.90;47492.59;4910890;29;20044;-68
2022/03/11 06:44:27;;;;;;;18.87;8.00;;;;;;;-145.18;99.71;47490.66;4904567;29;20501;-67
2022/03/11 06:46:53;;;;;;;18.47;8.97;;;;;;;-145.18;100.00;47488.69;4909988;29;20044;-67
2022/03/11 06:49:18;;;;;;;27.73;8.47;;;;;;;-145.18;99.70;47490.66;4893339;29;20051;-67
2022/03/11 06:51:43;;;;;;;26.40;9.00;;;;;;;-145.18;99.94;47482.84;4913938;29;20044;-67
2022/03/11 06:54:09;;;;;;;20.90;8.57;;;;;;;-145.18;100.00;47482.84;4913997;29;20080;-68
2022/03/11 06:56:35;;;;;;;20.93;9.07;;;;;;;-145.18;100.00;47476.97;4913488;29;20405;-68
2022/03/11 06:59:02;;;;;;;17.13;8.67;;;;;;;-145.18;100.00;47473.06;4913859;29;20497;-68
2022/03/11 07:01:27;;;;;;;17.85;8.93;;;;;;;-145.18;99.92;47469.16;4913824;29;20500;-68
2022/03/11 07:03:52;;;;;;;23.73;9.20;;;;;;;-145.18;99.97;47490.66;4913276;29;20090;-68
2022/03/11 07:06:18;;;;;;;25.03;9.73;;;;;;;-145.18;100.00;47476.97;4912789;29;20130;-68
2022/03/11 07:08:43;;;;;;;27.10;11.43;;;;;;;-145.18;100.00;47488.69;4913849;29;20381;-68
2022/03/11 07:11:09;;;;;;;26.87;11.20;;;;;;;-145.18;100.00;47476.97;4906412;29;20052;-67
2022/03/11 07:13:34;;;;;;;24.47;10.17;;;;;;;-145.18;100.00;47461.34;4909164;29;20067;-68
2022/03/11 07:16:00;;;;;;;19.00;8.73;;;;;;;-145.18;100.00;47473.06;4894442;29;20585;-68
2022/03/11 07:18:25;;;;;;;15.33;8.90;;;;;;;-145.18;99.54;47445.72;4894556;29;20107;-68
2022/03/11 07:20:50;;;;;;;15.33;8.20;;;;;;;-145.18;98.30;47449.63;4894755;29;20071;-68
2022/03/11 07:23:16;;;;;;;22.07;8.43;;;;;;;-145.18;97.82;47451.56;4904580;29;20060;-68
2022/03/11 07:25:41;;;;;;;16.37;7.47;;;;;;;-145.18;98.25;47455.47;4902913;29;20046;-68
2022/03/11 07:28:07;;;;;;;18.43;8.87;;;;;;;-145.18;97.53;47443.75;4899247;29;20062;-68
2022/03/11 07:30:32;;;;;;;19.93;8.10;;;;;;;-145.18;97.93;47426.19;4897962;29;20044;-67
2022/03/11 07:32:58;;;;;;;15.63;8.53;;;;;;;-145.18;97.32;47441.81;4913135;29;20051;-68
2022/03/11 07:35:23;;;;;;;17.57;8.50;;;;;;;-145.18;97.67;47430.09;4912089;29;20076;-68
2022/03/11 07:37:50;;;;;;;15.50;8.43;;;;;;;-145.18;97.79;47422.28;4911880;29;20120;-68
2022/03/11 07:40:15;;;;;;;17.65;9.52;;;;;;;-145.18;97.42;47441.81;4912276;29;20036;-68
2022/03/11 07:42:43;;;;;;;21.47;9.03;;;;;;;-145.18;97.41;47430.09;4912379;29;20588;-68
2022/03/11 07:45:17;;;;;;;20.97;8.47;;;;;;;-145.18;96.98;47394.91;4912837;29;20044;-68
2022/03/11 07:47:42;;;;;;;23.93;9.13;;;;;;;-145.18;97.74;47420.31;4912006;29;20294;-68
2022/03/11 07:50:09;;;;;;;21.73;10.17;;;;;;;-145.18;96.15;47410.56;4912577;29;20787;-68
2022/03/11 07:52:36;;;;;;;22.80;9.97;;;;;;;-145.18;97.32;47418.38;4913043;29;20093;-66
2022/03/11 07:55:01;;;;;;;18.70;9.43;;;;;;;-145.18;96.64;47414.47;4913589;29;20274;-67
2022/03/11 07:57:27;;;;;;;19.73;9.20;;;;;;;-145.18;96.68;47412.50;4912844;29;21093;-68
2022/03/11 07:59:52;;;;;;;21.30;9.30;;;;;;;-145.18;95.01;47414.47;4913120;29;20524;-68
2022/03/11 08:02:18;;;;;;;22.00;10.00;;;;;;;-145.18;95.84;47416.41;4912080;29;20055;-67
2022/03/11 08:04:43;;;;;;;20.17;9.17;;;;;;;-145.18;93.77;47394.91;4912981;29;20775;-67
2022/03/11 08:07:11;;;;;;;18.27;8.37;;;;;;;-145.18;92.34;47385.16;4911970;29;20071;-68
2022/03/11 08:09:38;;;;;;;17.90;9.27;;;;;;;-145.18;91.84;47381.25;4911871;29;20139;-68
2022/03/11 08:12:04;;;;;;;19.33;9.27;;;;;;;-145.18;91.99;47379.28;4912860;29;20306;-68
2022/03/11 08:14:31;;;;;;;18.97;8.83;;;;;;;-145.18;91.88;47394.91;4896132;29;20338;-68
2022/03/11 08:16:56;;;;;;;20.33;9.07;;;;;;;-145.18;93.97;47375.38;4913558;29;20752;-68
2022/03/11 08:19:23;;;;;;;23.07;9.80;;;;;;;-145.18;92.76;47379.28;4912678;29;20267;-66
2022/03/11 08:21:51;;;;;;;16.90;9.07;;;;;;;-145.18;90.97;47371.47;4912582;29;20118;-68
2022/03/11 08:24:17;;;;;;;25.97;10.00;;;;;;;-145.18;91.57;47375.38;4912723;29;20693;-67
2022/03/11 08:26:42;;;;;;;18.10;9.30;;;;;;;-145.18;91.04;47361.72;4912430;29;20287;-68
2022/03/11 08:29:08;;;;;;;17.17;9.50;;;;;;;-145.18;90.38;47375.38;4912147;29;20109;-68
2022/03/11 08:31:33;;;;;;;18.20;8.87;;;;;;;-145.18;91.12;47361.72;4913477;29;20048;-67
2022/03/11 08:33:58;;;;;;;23.10;8.83;;;;;;;-145.18;91.79;47348.03;4910331;29;20066;-68
2022/03/11 08:36:24;;;;;;;21.17;9.57;;;;;;;-145.18;92.07;47365.63;4912605;29;20144;-66
2022/03/11 08:38:49;;;;;;;22.33;8.97;;;;;;;-145.18;90.87;47342.16;4895283;29;20131;-66
2022/03/11 08:41:16;;;;;;;18.37;8.60;;;;;;;-145.18;90.40;47336.31;4912419;29;20040;-66
2022/03/11 08:43:42;;;;;;;24.87;9.60;;;;;;;-145.18;90.29;47334.34;4911697;29;20044;-66
2022/03/11 08:46:09;;;;;;;22.90;9.40;;;;;;;-145.18;90.86;47357.78;4912704;29;20314;-66
2022/03/11 08:48:35;;;;;;;20.87;10.57;;;;;;;-145.18;88.55;47346.06;4911868;29;20077;-66
2022/03/11 08:51:02;;;;;;;21.83;9.57;;;;;;;-145.18;88.27;47336.31;4912384;29;20282;-66
2022/03/11 08:53:27;;;;;;;21.53;9.60;;;;;;;-145.18;88.08;47344.13;4910446;29;20311;-67
2022/03/11 08:55:52;;;;;;;18.33;9.00;;;;;;;-145.18;87.12;47326.53;4912014;29;20299;-66
2022/03/11 08:58:19;;;;;;;21.77;10.03;;;;;;;-145.18;86.98;47330.44;4912025;29;20043;-66
2022/03/11 09:00:44;;;;;;;20.73;10.63;;;;;;;-145.18;88.06;47320.69;4912015;29;20556;-65
2022/03/11 09:03:10;;;;;;;22.97;9.83;;;;;;;-145.18;86.88;47326.53;4911995;29;20267;-65
2022/03/11 09:05:37;;;;;;;22.80;9.77;;;;;;;-145.18;88.25;47322.63;4912029;29;20051;-66
2022/03/11 09:08:03;;;;;;;17.10;9.90;;;;;;;-145.18;86.63;47330.44;4911436;29;20064;-66
2022/03/11 09:10:29;;;;;;;22.50;9.43;;;;;;;-145.18;87.26;47318.72;4911538;29;20310;-66
2022/03/11 09:12:54;;;;;;;18.23;8.77;;;;;;;-145.18;85.62;47303.09;4910612;29;20032;-66
2022/03/11 09:15:20;;;;;;;22.37;9.77;;;;;;;-145.18;86.90;47320.69;4912181;29;20390;-66
2022/03/11 09:17:45;;;;;;;18.10;9.30;;;;;;;-145.18;88.39;47314.81;4911701;29;20075;-66
2022/03/11 09:20:12;;;;;;;16.77;9.20;;;;;;;-145.18;87.04;47303.09;4911521;29;20202;-66
2022/03/11 09:22:39;;;;;;;16.00;9.57;;;;;;;-145.18;87.01;47307.00;4911193;29;20579;-66
2022/03/11 09:25:07;;;;;;;16.07;9.40;;;;;;;-145.18;87.00;47291.38;4911491;29;20279;-66
2022/03/11 09:27:33;;;;;;;19.30;10.27;;;;;;;-145.18;85.70;47295.28;4911845;29;20278;-67
2022/03/11 09:29:58;;;;;;;19.93;10.40;;;;;;;-145.18;85.64;47305.06;4911030;29;20283;-66
2022/03/11 09:32:24;;;;;;;16.50;9.13;;;;;;;-145.18;87.02;47299.19;4910225;29;20071;-66
2022/03/11 09:34:50;;;;;;;15.83;9.30;;;;;;;-145.18;85.80;47299.19;4911423;29;20048;-67
2022/03/11 09:37:15;;;;;;;18.17;9.17;;;;;;;-145.18;84.69;47281.59;4911853;29;20764;-66
2022/03/11 09:39:40;;;;;;;21.77;9.80;;;;;;;-145.18;85.92;47297.22;4910837;29;20048;-67
2022/03/11 09:42:06;;;;;;;18.10;9.87;;;;;;;-145.18;83.94;47269.88;4911251;29;20051;-66
2022/03/11 09:44:32;;;;;;;15.37;8.37;;;;;;;-145.18;85.63;47293.31;4910793;29;20047;-66
2022/03/11 09:46:58;;;;;;;15.37;9.17;;;;;;;-145.18;85.70;47283.56;4907772;29;20546;-67
2022/03/11 09:49:24;;;;;;;20.00;9.80;;;;;;;-145.18;87.15;47277.69;4898460;29;20808;-66
2022/03/11 09:51:49;;;;;;;19.57;10.00;;;;;;;-145.18;84.14;47273.78;4900485;29;20310;-66
2022/03/11 09:54:15;;;;;;;24.43;9.63;;;;;;;-145.18;84.07;47275.75;4891876;29;20425;-66
2022/03/11 09:56:43;;;;;;;18.47;10.00;;;;;;;-145.18;85.32;47250.34;4902519;29;20064;-66
2022/03/11 09:59:10;;;;;;;23.43;10.30;;;;;;;-145.18;84.63;47260.13;4904752;29;20151;-66
2022/03/11 10:01:36;;;;;;;16.23;9.70;;;;;;;-145.18;84.46;47254.25;4910786;29;20768;-66
2022/03/11 10:04:06;;;;;;;19.80;9.33;;;;;;;-145.18;84.18;47248.41;4900786;29;20354;-67
2022/03/11 10:06:52;;;;;;;21.70;10.10;;;;;;;-145.18;84.27;47265.97;4899144;29;20566;-66
2022/03/11 10:09:17;;;;;;;19.88;10.60;;;;;;;-145.18;83.94;47246.44;4889823;29;20703;-66
2022/03/11 10:11:46;;;;;;;14.57;9.23;;;;;;;-145.18;82.69;47238.63;4907966;29;20128;-66
2022/03/11 10:14:11;;;;;;;17.17;9.60;;;;;;;-145.18;83.79;47238.63;4918182;29;20040;-66
2022/03/11 10:16:37;;;;;;;16.67;9.63;;;;;;;-145.18;83.98;47207.38;4930071;29;20278;-67
2022/03/11 10:19:06;;;;;;;16.30;9.63;;;;;;;-145.18;83.48;47232.75;4929483;29;20036;-66
2022/03/11 10:21:35;;;;;;;17.67;10.47;;;;;;;-145.18;83.79;47213.22;4929905;29;20404;-66
2022/03/11 10:24:05;;;;;;;17.00;9.93;;;;;;;-145.18;81.94;47201.50;4917992;29;20720;-67
2022/03/11 10:26:42;;;;;;;18.93;10.33;;;;;;;-145.18;83.05;47234.72;4900421;29;20286;-66
2022/03/11 10:29:25;;;;;;;17.73;9.87;;;;;;;-145.18;82.89;47207.38;4903310;29;20634;-67
2022/03/11 10:31:52;;;;;;;22.57;10.97;;;;;;;-145.18;82.80;47201.50;4900317;29;20272;-67
2022/03/11 10:34:26;;;;;;;19.23;9.90;;;;;;;-145.18;82.67;47191.75;4899414;29;20295;-66
2022/03/11 10:36:54;;;;;;;18.07;9.43;;;;;;;-145.18;81.04;47209.31;4902065;29;20330;-66
2022/03/11 10:39:31;;;;;;;26.67;10.83;;;;;;;-145.18;81.35;47205.41;4893609;29;20267;-66
2022/03/11 10:42:13;;;;;;;22.07;10.70;;;;;;;-145.18;82.44;47211.28;4891537;29;20279;-66
2022/03/11 10:44:42;;;;;;;19.37;9.57;;;;;;;-145.18;81.50;47191.75;4898344;29;20283;-66
2022/03/11 10:47:21;;;;;;;19.03;10.07;;;;;;;-145.18;81.04;47199.56;4909352;29;20342;-67
2022/03/11 10:49:51;;;;;;;19.77;10.07;;;;;;;-145.18;83.71;47189.78;4892262;29;20275;-67
2022/03/11 10:52:34;;;;;;;19.63;9.77;;;;;;;-145.18;79.29;47195.66;4890390;29;20288;-66
2022/03/11 10:55:01;;;;;;;16.77;10.07;;;;;;;-145.18;81.85;47191.75;4899942;29;20278;-66
2022/03/11 10:57:35;;;;;;;22.27;10.90;;;;;;;-145.18;79.68;47197.59;4910125;29;20287;-66
2022/03/11 11:00:28;;;;;;;18.93;11.20;;;;;;;-145.18;81.34;47193.69;4909623;29;20333;-66
2022/03/11 11:02:55;;;;;;;17.30;10.27;;;;;;;-145.18;81.26;47172.19;4905472;29;20279;-66
2022/03/11 11:05:22;;;;;;;20.27;9.70;;;;;;;-145.18;79.48;47168.28;4910311;29;20320;-66
2022/03/11 11:07:49;;;;;;;23.23;10.77;;;;;;;-145.18;80.46;47168.28;4910216;29;20858;-66